Time;durP1;ratioP1;P1;durP2;ratioP2;P2;SDS_P1;SDS_P2;PMS_P1;PMS_P2;Temp;Humidity;BMP_temperature;BMP_pressure;BME280_temperature;BME280_humidity;BME280_pressure;Samples;Min_cycle;Max_cycle;Signal;HPM_P1;HPM_P2
2022/11/11 05:30:24;;;;;;;0.90;0.43;;;;;;;-145.06;0.00;60892.56;5942941;23;20020;-91
2022/11/11 05:33:08;;;;;;;0.88;0.47;;;;;;;-145.06;0.00;60892.56;5955096;23;20005;-91
2022/11/11 05:35:55;;;;;;;0.30;0.30;;;;;;;-145.06;0.00;60892.56;5957307;23;20009;-92
2022/11/11 05:38:34;;;;;;;0.50;0.50;;;;;;;-145.06;0.00;60892.56;5957076;23;20527;-91
2022/11/11 05:41:16;;;;;;;0.50;0.50;;;;;;;-145.06;0.00;60892.56;5977059;23;20009;-91
2022/11/11 05:44:27;;;;;;;0.45;0.45;;;;;;;-145.06;0.00;60892.56;5955896;23;20001;-92
2022/11/11 05:47:18;;;;;;;0.70;0.40;;;;;;;-145.06;0.00;60892.56;5957118;23;20005;-91
2022/11/11 05:49:58;;;;;;;0.47;0.47;;;;;;;-145.06;0.00;60892.56;5954869;23;20009;-93
2022/11/11 05:52:45;;;;;;;0.43;0.43;;;;;;;-145.06;0.00;60892.56;5956365;23;20009;-91
2022/11/11 05:55:25;;;;;;;1.05;0.70;;;;;;;-145.06;0.00;60892.56;5956586;23;20300;-93
2022/11/11 06:01:06;;;;;;;1.17;0.40;;;;;;;-145.06;0.00;60892.56;5987833;23;20009;-91
2022/11/11 06:03:46;;;;;;;0.65;0.55;;;;;;;-145.06;0.00;60892.56;5957844;23;20091;-92
2022/11/11 06:06:25;;;;;;;0.50;0.50;;;;;;;-145.06;0.00;60892.56;5954250;23;20036;-91
2022/11/11 06:09:10;;;;;;;0.95;0.60;;;;;;;-145.06;0.00;60892.56;5954784;23;20005;-93
2022/11/11 06:11:54;;;;;;;1.13;0.50;;;;;;;-145.06;0.00;60892.56;5956080;23;20001;-92
2022/11/11 06:14:42;;;;;;;0.43;0.40;;;;;;;-145.06;0.00;60892.56;5957889;23;20028;-92
2022/11/11 06:17:41;;;;;;;0.65;0.60;;;;;;;-145.06;0.00;60892.56;5954757;23;20420;-91
2022/11/11 06:20:21;;;;;;;1.20;0.90;;;;;;;-145.06;0.00;60892.56;5956035;23;20000;-90
2022/11/11 06:23:04;;;;;;;2.47;1.40;;;;;;;-145.06;0.00;60892.56;5977813;23;20005;-90
2022/11/11 06:28:49;;;;;;;2.65;1.52;;;;;;;-145.06;0.00;60892.56;5988109;23;20419;-93
2022/11/11 06:31:29;;;;;;;2.60;1.48;;;;;;;-145.06;0.00;60892.56;5957092;23;20009;-92
2022/11/11 06:34:07;;;;;;;2.50;1.50;;;;;;;-145.06;0.00;60892.56;5960088;23;20009;-90
2022/11/11 06:36:46;;;;;;;4.00;1.95;;;;;;;-145.06;0.00;60892.56;5984285;23;20005;-90
2022/11/11 06:42:36;;;;;;;2.83;1.55;;;;;;;-145.06;0.00;60892.56;5985559;23;20005;-92
2022/11/11 06:45:16;;;;;;;3.10;1.80;;;;;;;-145.06;0.00;60892.56;5954643;23;20008;-91
2022/11/11 06:47:55;;;;;;;4.50;2.13;;;;;;;-145.06;0.00;60892.56;5955852;23;20005;-92
2022/11/11 06:50:34;;;;;;;4.30;2.47;;;;;;;-145.06;0.00;60892.56;5978573;23;20264;-92
2022/11/11 06:53:15;;;;;;;;;;;;;;;-145.06;0.00;60892.56;5955661;23;20084;-92
2022/11/11 06:55:54;;;;;;;5.65;2.75;;;;;;;-145.06;0.00;60892.56;5954586;23;19904;-91
2022/11/11 06:58:34;;;;;;;7.05;3.72;;;;;;;-145.06;0.00;60892.56;5956881;23;20029;-91
2022/11/11 07:01:13;;;;;;;6.97;3.55;;;;;;;-145.06;0.00;60892.56;5955962;23;20005;-91
2022/11/11 07:03:53;;;;;;;6.55;3.40;;;;;;;-145.06;0.00;60892.56;5954016;23;20411;-92
2022/11/11 07:06:32;;;;;;;5.72;3.05;;;;;;;-145.06;0.00;60892.56;5957083;23;20032;-92
2022/11/11 07:09:11;;;;;;;3.75;2.20;;;;;;;-145.06;0.00;60892.56;5956696;23;20009;-90
2022/11/11 07:11:50;;;;;;;2.55;1.60;;;;;;;-145.06;0.00;60892.56;5954507;23;20005;-90
2022/11/11 07:14:29;;;;;;;2.90;1.50;;;;;;;-145.06;0.00;60892.56;5977975;23;20009;-91
2022/11/11 07:17:08;;;;;;;2.25;1.23;;;;;;;-145.06;0.00;60892.56;5955359;23;20001;-91
2022/11/11 07:19:50;;;;;;;1.77;1.03;;;;;;;-145.06;0.00;60892.56;5954122;23;20005;-91
2022/11/11 07:22:29;;;;;;;1.35;0.98;;;;;;;-145.06;0.00;60892.56;5974890;23;20313;-93
2022/11/11 07:25:08;;;;;;;1.13;0.70;;;;;;;-145.06;0.00;60892.56;5956519;23;20005;-89
2022/11/11 07:28:05;;;;;;;0.80;0.65;;;;;;;-145.06;0.00;60892.56;5956718;23;20013;-92
2022/11/11 07:30:45;;;;;;;0.90;0.70;;;;;;;-145.06;0.00;60892.56;5953676;23;20001;-90
2022/11/11 07:33:24;;;;;;;0.63;0.60;;;;;;;-145.06;0.00;60892.56;5957096;23;20009;-91
2022/11/11 07:36:04;;;;;;;1.20;0.90;;;;;;;-145.06;0.00;60892.56;5956210;23;20009;-92
2022/11/11 07:38:54;;;;;;;1.63;0.88;;;;;;;-145.06;0.00;60892.56;5953562;23;20462;-92
2022/11/11 07:41:33;;;;;;;1.10;0.85;;;;;;;-145.06;0.00;60892.56;5956373;23;20009;-91
2022/11/11 07:44:12;;;;;;;1.10;0.63;;;;;;;-145.06;0.00;60892.56;5957314;23;20024;-92
2022/11/11 07:46:51;;;;;;;1.83;1.00;;;;;;;-145.06;0.00;60892.56;5953139;23;20005;-91
2022/11/11 07:49:30;;;;;;;1.23;0.90;;;;;;;-145.06;0.00;60892.56;5956197;23;20005;-92
2022/11/11 07:52:09;;;;;;;0.60;0.57;;;;;;;-145.06;0.00;60892.56;5956458;23;20005;-91
2022/11/11 07:54:49;;;;;;;1.25;0.80;;;;;;;-145.06;0.00;60892.56;5974626;23;20009;-91
2022/11/11 07:57:30;;;;;;;0.70;0.50;;;;;;;-145.06;0.00;60892.56;5953967;23;20005;-91
2022/11/11 08:00:39;;;;;;;1.40;0.77;;;;;;;-145.06;0.00;60892.56;5955458;23;20005;-93
2022/11/11 08:03:23;;;;;;;1.05;0.70;;;;;;;-145.06;0.00;60892.56;5957260;23;20084;-92
2022/11/11 08:09:42;;;;;;;1.13;0.68;;;;;;;-145.06;0.00;60892.56;5844577;23;20007;-91
2022/11/11 08:15:55;;;;;;;1.73;0.88;;;;;;;-145.06;0.00;60892.56;5985109;23;20004;-92
2022/11/11 08:19:03;;;;;;;2.20;1.25;;;;;;;-145.06;0.00;60892.56;5958151;23;20005;-91
2022/11/11 08:22:00;;;;;;;2.28;0.80;;;;;;;-145.06;0.00;60892.56;5951400;23;20451;-91
2022/11/11 08:25:15;;;;;;;1.83;0.90;;;;;;;-145.06;0.00;60892.56;5953863;23;20005;-91
2022/11/11 08:46:24;;;;;;;1.30;0.98;;;;;;;-145.06;0.00;60892.56;5984698;23;20009;-93
2022/11/11 08:49:17;;;;;;;0.95;0.70;;;;;;;-145.06;0.00;60892.56;5932816;23;20004;-92
2022/11/11 08:52:49;;;;;;;0.82;0.60;;;;;;;-145.06;0.00;60892.56;5953070;23;20009;-94
2022/11/11 08:56:14;;;;;;;;;;;;;;;;;;;;;
2022/11/11 08:59:54;;;;;;;1.30;0.60;;;;;;;-145.06;0.00;60892.56;5870510;23;20007;-93
2022/11/11 09:02:42;;;;;;;1.40;0.80;;;;;;;-145.06;0.00;60892.56;5875367;23;20028;-92
2022/11/11 09:06:19;;;;;;;1.48;0.70;;;;;;;-145.06;0.00;60892.56;5956959;23;20009;-93
2022/11/11 09:09:49;;;;;;;0.88;0.70;;;;;;;-145.06;0.00;60892.56;5813211;23;20524;-92
2022/11/11 09:13:28;;;;;;;0.95;0.50;;;;;;;-145.06;0.00;60892.56;5914126;23;20009;-94
2022/11/11 10:06:19;;;;;;;1.45;0.90;;;;;;;-145.06;0.00;60892.56;5980165;22;20016;-92
2022/11/11 10:09:45;;;;;;;;;;;;;;;;;;;;;
2022/11/11 10:13:11;;;;;;;1.42;0.85;;;;;;;-145.06;0.00;60892.56;5985370;23;20423;-91
2022/11/11 10:31:20;;;;;;;0.82;0.60;;;;;;;-145.06;0.00;60892.56;5870640;23;20011;-92
2022/11/11 10:38:14;;;;;;;;;;;;;;;;;;;;;
2022/11/11 10:48:17;;;;;;;0.60;0.50;;;;;;;-145.06;0.00;60892.56;5980390;23;20009;-91
2022/11/11 12:36:07;;;;;;;1.98;0.73;;;;;;;-145.06;0.00;60892.56;5977852;22;19960;-91
2022/11/11 12:39:25;;;;;;;1.38;0.60;;;;;;;-145.06;0.00;60892.56;5955688;23;20001;-92
2022/11/11 12:42:58;;;;;;;1.27;0.63;;;;;;;-145.06;0.00;60892.56;5954759;23;20001;-94
2022/11/11 12:53:21;;;;;;;0.70;0.50;;;;;;;-145.06;0.00;60892.56;5950160;23;20024;-92
